sensor_id;sensor_type;location;lat;lon;timestamp;pressure;altitude;pressure_sealevel;temperature;humidity
11395;BME280;5753;54.402;10.220;2022-09-09T00:00:34;100840.53;;;26.02;49.20
11395;BME280;5753;54.402;10.220;2022-09-09T00:11:12;100820.81;;;25.90;48.99
11395;BME280;5753;54.402;10.220;2022-09-09T00:13:45;100823.91;;;25.81;49.47
11395;BME280;5753;54.402;10.220;2022-09-09T00:16:22;100823.22;;;25.95;48.88
11395;BME280;5753;54.402;10.220;2022-09-09T00:19:18;100822.22;;;24.82;52.53
11395;BME280;5753;54.402;10.220;2022-09-09T00:24:46;100822.41;;;24.97;51.69
11395;BME280;5753;54.402;10.220;2022-09-09T00:27:47;100823.34;;;25.17;52.06
11395;BME280;5753;54.402;10.220;2022-09-09T00:30:20;100815.81;;;24.87;52.16
11395;BME280;5753;54.402;10.220;2022-09-09T00:32:50;100811.22;;;25.50;50.82
11395;BME280;5753;54.402;10.220;2022-09-09T00:35:31;100807.63;;;25.71;50.05
11395;BME280;5753;54.402;10.220;2022-09-09T00:38:45;100806.81;;;25.51;50.54
11395;BME280;5753;54.402;10.220;2022-09-09T00:40:55;100808.72;;;24.05;53.94
11395;BME280;5753;54.402;10.220;2022-09-09T00:43:35;100816.47;;;24.92;52.90
11395;BME280;5753;54.402;10.220;2022-09-09T00:46:41;100804.38;;;25.46;51.46
11395;BME280;5753;54.402;10.220;2022-09-09T00:49:26;100802.00;;;25.79;50.77
11395;BME280;5753;54.402;10.220;2022-09-09T00:54:45;100801.53;;;26.24;48.87
11395;BME280;5753;54.402;10.220;2022-09-09T00:57:31;100812.00;;;25.72;50.13
11395;BME280;5753;54.402;10.220;2022-09-09T01:00:21;100809.06;;;26.15;48.99
11395;BME280;5753;54.402;10.220;2022-09-09T01:08:01;100805.66;;;25.19;51.89
11395;BME280;5753;54.402;10.220;2022-09-09T01:10:51;100807.97;;;25.83;50.50
11395;BME280;5753;54.402;10.220;2022-09-09T01:13:29;100808.84;;;25.06;52.59
11395;BME280;5753;54.402;10.220;2022-09-09T01:15:58;100804.59;;;25.98;49.76
11395;BME280;5753;54.402;10.220;2022-09-09T01:18:38;100805.38;;;25.25;52.22
11395;BME280;5753;54.402;10.220;2022-09-09T01:26:46;100803.28;;;24.92;54.05
11395;BME280;5753;54.402;10.220;2022-09-09T01:29:14;100804.06;;;25.72;50.73
11395;BME280;5753;54.402;10.220;2022-09-09T01:31:53;100808.56;;;24.92;53.03
11395;BME280;5753;54.402;10.220;2022-09-09T01:34:20;100806.50;;;24.60;54.23
11395;BME280;5753;54.402;10.220;2022-09-09T01:37:06;100800.97;;;25.44;51.49
11395;BME280;5753;54.402;10.220;2022-09-09T01:39:37;100801.50;;;24.93;53.33
11395;BME280;5753;54.402;10.220;2022-09-09T01:42:08;100795.38;;;24.92;53.00
11395;BME280;5753;54.402;10.220;2022-09-09T01:44:35;100792.97;;;25.27;51.93
11395;BME280;5753;54.402;10.220;2022-09-09T01:47:03;100795.69;;;25.44;51.50
11395;BME280;5753;54.402;10.220;2022-09-09T01:49:30;100803.69;;;25.03;51.94
11395;BME280;5753;54.402;10.220;2022-09-09T01:51:58;100799.19;;;25.26;52.44
11395;BME280;5753;54.402;10.220;2022-09-09T01:54:29;100812.28;;;25.08;52.13
11395;BME280;5753;54.402;10.220;2022-09-09T01:57:27;100801.91;;;23.99;56.85
11395;BME280;5753;54.402;10.220;2022-09-09T02:00:04;100802.19;;;25.18;53.35
11395;BME280;5753;54.402;10.220;2022-09-09T02:08:23;100820.97;;;24.90;55.05
11395;BME280;5753;54.402;10.220;2022-09-09T02:11:15;100815.59;;;24.31;56.14
11395;BME280;5753;54.402;10.220;2022-09-09T02:13:44;100816.81;;;24.00;57.57
11395;BME280;5753;54.402;10.220;2022-09-09T02:19:02;100808.97;;;25.61;52.04
11395;BME280;5753;54.402;10.220;2022-09-09T02:21:31;100803.06;;;25.56;51.49
11395;BME280;5753;54.402;10.220;2022-09-09T02:24:04;100811.75;;;25.58;51.69
11395;BME280;5753;54.402;10.220;2022-09-09T02:26:33;100810.13;;;24.96;53.87
11395;BME280;5753;54.402;10.220;2022-09-09T02:29:05;100811.97;;;24.33;56.05
11395;BME280;5753;54.402;10.220;2022-09-09T02:31:34;100807.94;;;25.07;53.28
11395;BME280;5753;54.402;10.220;2022-09-09T02:34:05;100810.31;;;24.09;57.80
11395;BME280;5753;54.402;10.220;2022-09-09T02:36:35;100813.25;;;23.79;58.63
11395;BME280;5753;54.402;10.220;2022-09-09T02:39:03;100812.59;;;24.80;55.13
11395;BME280;5753;54.402;10.220;2022-09-09T02:41:33;100816.78;;;25.25;53.26
11395;BME280;5753;54.402;10.220;2022-09-09T02:44:00;100809.09;;;25.00;53.79
11395;BME280;5753;54.402;10.220;2022-09-09T02:52:52;100819.81;;;25.55;52.13
11395;BME280;5753;54.402;10.220;2022-09-09T02:54:59;100812.31;;;25.46;51.97
11395;BME280;5753;54.402;10.220;2022-09-09T02:57:31;100803.47;;;25.28;51.98
11395;BME280;5753;54.402;10.220;2022-09-09T02:59:58;100814.22;;;25.24;52.60
11395;BME280;5753;54.402;10.220;2022-09-09T03:02:26;100811.84;;;24.57;55.07
11395;BME280;5753;54.402;10.220;2022-09-09T03:04:52;100816.50;;;24.72;54.79
11395;BME280;5753;54.402;10.220;2022-09-09T03:07:19;100817.66;;;24.44;55.96
11395;BME280;5753;54.402;10.220;2022-09-09T03:09:45;100815.00;;;25.26;53.71
11395;BME280;5753;54.402;10.220;2022-09-09T03:12:11;100817.06;;;25.19;52.87
11395;BME280;5753;54.402;10.220;2022-09-09T03:14:38;100815.72;;;25.10;53.37
11395;BME280;5753;54.402;10.220;2022-09-09T03:17:05;100816.13;;;25.59;51.82
11395;BME280;5753;54.402;10.220;2022-09-09T03:19:32;100822.94;;;24.85;53.55
11395;BME280;5753;54.402;10.220;2022-09-09T03:22:01;100818.50;;;25.07;53.27
11395;BME280;5753;54.402;10.220;2022-09-09T03:24:27;100816.50;;;24.72;54.89
11395;BME280;5753;54.402;10.220;2022-09-09T03:26:53;100817.78;;;25.23;53.61
11395;BME280;5753;54.402;10.220;2022-09-09T03:29:21;100825.06;;;25.18;53.45
11395;BME280;5753;54.402;10.220;2022-09-09T03:31:47;100814.09;;;24.45;54.70
11395;BME280;5753;54.402;10.220;2022-09-09T03:34:13;100811.69;;;22.79;64.71
11395;BME280;5753;54.402;10.220;2022-09-09T03:36:40;100824.09;;;23.72;59.09
11395;BME280;5753;54.402;10.220;2022-09-09T03:39:07;100813.88;;;25.13;54.60
11395;BME280;5753;54.402;10.220;2022-09-09T03:41:33;100814.94;;;25.27;53.86
11395;BME280;5753;54.402;10.220;2022-09-09T03:44:00;100829.41;;;24.98;54.50
11395;BME280;5753;54.402;10.220;2022-09-09T03:46:26;100815.44;;;24.76;55.21
11395;BME280;5753;54.402;10.220;2022-09-09T03:48:52;100829.47;;;23.91;57.90
11395;BME280;5753;54.402;10.220;2022-09-09T03:51:19;100831.16;;;24.15;56.58
11395;BME280;5753;54.402;10.220;2022-09-09T03:53:45;100820.50;;;22.51;65.21
11395;BME280;5753;54.402;10.220;2022-09-09T03:56:12;100821.09;;;23.58;61.14
11395;BME280;5753;54.402;10.220;2022-09-09T03:58:38;100812.28;;;23.35;62.55
11395;BME280;5753;54.402;10.220;2022-09-09T04:01:06;100817.28;;;23.66;60.24
11395;BME280;5753;54.402;10.220;2022-09-09T04:03:33;100818.16;;;24.32;57.96
11395;BME280;5753;54.402;10.220;2022-09-09T04:06:01;100812.47;;;22.82;64.12
11395;BME280;5753;54.402;10.220;2022-09-09T04:08:29;100812.47;;;22.82;63.66
11395;BME280;5753;54.402;10.220;2022-09-09T04:10:57;100817.06;;;23.72;60.71
11395;BME280;5753;54.402;10.220;2022-09-09T04:13:24;100812.25;;;24.88;55.43
11395;BME280;5753;54.402;10.220;2022-09-09T04:15:55;100816.47;;;24.31;58.06
11395;BME280;5753;54.402;10.220;2022-09-09T04:18:22;100820.25;;;23.80;58.85
11395;BME280;5753;54.402;10.220;2022-09-09T04:20:52;100828.72;;;23.17;61.31
11395;BME280;5753;54.402;10.220;2022-09-09T04:23:19;100826.97;;;23.41;62.27
11395;BME280;5753;54.402;10.220;2022-09-09T04:25:51;100836.56;;;23.67;58.70
11395;BME280;5753;54.402;10.220;2022-09-09T04:28:20;100828.47;;;23.00;63.05
11395;BME280;5753;54.402;10.220;2022-09-09T04:30:46;100833.50;;;23.54;61.39
11395;BME280;5753;54.402;10.220;2022-09-09T04:33:13;100833.94;;;23.89;58.54
11395;BME280;5753;54.402;10.220;2022-09-09T04:35:43;100833.16;;;23.63;58.88
11395;BME280;5753;54.402;10.220;2022-09-09T04:38:10;100834.72;;;24.14;57.46
11395;BME280;5753;54.402;10.220;2022-09-09T04:40:36;100837.75;;;24.25;56.06
11395;BME280;5753;54.402;10.220;2022-09-09T04:43:03;100844.31;;;25.20;52.63
11395;BME280;5753;54.402;10.220;2022-09-09T04:45:30;100840.16;;;24.73;54.07
11395;BME280;5753;54.402;10.220;2022-09-09T04:47:56;100842.34;;;24.64;54.33
11395;BME280;5753;54.402;10.220;2022-09-09T04:50:23;100846.16;;;24.77;53.90
11395;BME280;5753;54.402;10.220;2022-09-09T04:52:49;100850.13;;;25.07;52.42
11395;BME280;5753;54.402;10.220;2022-09-09T04:55:15;100844.63;;;25.51;50.62
11395;BME280;5753;54.402;10.220;2022-09-09T04:57:41;100846.59;;;25.08;51.43
11395;BME280;5753;54.402;10.220;2022-09-09T05:00:08;100846.69;;;24.21;53.72
11395;BME280;5753;54.402;10.220;2022-09-09T05:02:38;100841.78;;;23.90;56.37
11395;BME280;5753;54.402;10.220;2022-09-09T05:05:08;100845.28;;;24.76;53.52
11395;BME280;5753;54.402;10.220;2022-09-09T05:07:34;100847.72;;;24.81;52.97
11395;BME280;5753;54.402;10.220;2022-09-09T05:10:00;100852.31;;;24.56;52.76
11395;BME280;5753;54.402;10.220;2022-09-09T05:12:26;100853.00;;;24.81;52.01
11395;BME280;5753;54.402;10.220;2022-09-09T05:14:53;100870.41;;;25.26;51.00
11395;BME280;5753;54.402;10.220;2022-09-09T05:17:19;100866.13;;;25.62;50.45
11395;BME280;5753;54.402;10.220;2022-09-09T05:19:45;100867.00;;;25.24;51.48
11395;BME280;5753;54.402;10.220;2022-09-09T05:22:11;100878.97;;;24.90;51.96
11395;BME280;5753;54.402;10.220;2022-09-09T05:24:38;100873.44;;;24.96;52.22
11395;BME280;5753;54.402;10.220;2022-09-09T05:27:04;100880.00;;;25.47;50.72
11395;BME280;5753;54.402;10.220;2022-09-09T05:29:32;100880.53;;;25.55;51.44
11395;BME280;5753;54.402;10.220;2022-09-09T05:32:01;100882.56;;;25.88;50.39
11395;BME280;5753;54.402;10.220;2022-09-09T05:34:27;100886.66;;;25.17;51.69
11395;BME280;5753;54.402;10.220;2022-09-09T05:36:53;100885.53;;;25.22;51.45
11395;BME280;5753;54.402;10.220;2022-09-09T05:39:19;100875.28;;;24.32;54.41
11395;BME280;5753;54.402;10.220;2022-09-09T05:41:45;100897.72;;;25.25;52.50
11395;BME280;5753;54.402;10.220;2022-09-09T05:44:11;100896.69;;;25.08;52.22
11395;BME280;5753;54.402;10.220;2022-09-09T05:46:37;100892.03;;;25.54;50.71
11395;BME280;5753;54.402;10.220;2022-09-09T05:49:03;100895.78;;;25.09;51.71
11395;BME280;5753;54.402;10.220;2022-09-09T05:51:31;100889.44;;;25.14;51.60
11395;BME280;5753;54.402;10.220;2022-09-09T05:53:58;100897.38;;;24.49;53.99
11395;BME280;5753;54.402;10.220;2022-09-09T05:56:28;100896.16;;;25.21;52.55
11395;BME280;5753;54.402;10.220;2022-09-09T05:58:56;100891.44;;;23.99;57.20
11395;BME280;5753;54.402;10.220;2022-09-09T06:01:30;100893.53;;;24.78;54.51
11395;BME280;5753;54.402;10.220;2022-09-09T06:03:57;100888.72;;;24.88;53.34
11395;BME280;5753;54.402;10.220;2022-09-09T06:06:30;100887.63;;;24.52;54.10
11395;BME280;5753;54.402;10.220;2022-09-09T06:08:57;100888.19;;;25.41;52.73
11395;BME280;5753;54.402;10.220;2022-09-09T06:11:25;100894.25;;;25.24;52.50
11395;BME280;5753;54.402;10.220;2022-09-09T06:13:52;100883.47;;;24.24;56.48
11395;BME280;5753;54.402;10.220;2022-09-09T06:16:22;100890.63;;;24.64;54.40
11395;BME280;5753;54.402;10.220;2022-09-09T06:18:52;100890.81;;;24.60;53.90
11395;BME280;5753;54.402;10.220;2022-09-09T06:21:21;100890.50;;;23.05;61.07
11395;BME280;5753;54.402;10.220;2022-09-09T06:23:48;100890.31;;;24.50;56.69
11395;BME280;5753;54.402;10.220;2022-09-09T06:26:16;100884.25;;;24.90;53.49
11395;BME280;5753;54.402;10.220;2022-09-09T06:28:44;100894.13;;;23.51;59.61
11395;BME280;5753;54.402;10.220;2022-09-09T06:31:12;100906.47;;;23.26;61.30
11395;BME280;5753;54.402;10.220;2022-09-09T06:33:40;100905.38;;;23.56;61.56
11395;BME280;5753;54.402;10.220;2022-09-09T06:36:15;100899.91;;;24.31;58.93
11395;BME280;5753;54.402;10.220;2022-09-09T06:38:42;100915.72;;;22.86;63.78
11395;BME280;5753;54.402;10.220;2022-09-09T06:41:09;100903.94;;;24.39;58.40
11395;BME280;5753;54.402;10.220;2022-09-09T06:43:36;100903.09;;;25.42;53.99
11395;BME280;5753;54.402;10.220;2022-09-09T06:46:08;100907.13;;;24.47;57.31
11395;BME280;5753;54.402;10.220;2022-09-09T06:48:35;100906.94;;;23.85;60.03
11395;BME280;5753;54.402;10.220;2022-09-09T06:51:15;100909.47;;;24.10;58.83
11395;BME280;5753;54.402;10.220;2022-09-09T06:53:42;100906.91;;;24.74;56.88
11395;BME280;5753;54.402;10.220;2022-09-09T06:58:37;100914.84;;;24.52;59.63
11395;BME280;5753;54.402;10.220;2022-09-09T07:01:05;100899.88;;;24.53;57.35
11395;BME280;5753;54.402;10.220;2022-09-09T07:03:31;100912.38;;;24.47;57.91
11395;BME280;5753;54.402;10.220;2022-09-09T07:05:58;100911.16;;;24.78;56.43
11395;BME280;5753;54.402;10.220;2022-09-09T07:08:25;100907.75;;;24.09;59.10
11395;BME280;5753;54.402;10.220;2022-09-09T07:10:52;100918.00;;;24.82;57.03
11395;BME280;5753;54.402;10.220;2022-09-09T07:13:25;100904.66;;;25.27;55.83
11395;BME280;5753;54.402;10.220;2022-09-09T07:15:52;100915.16;;;23.99;59.62
11395;BME280;5753;54.402;10.220;2022-09-09T07:18:19;100918.38;;;24.73;57.75
11395;BME280;5753;54.402;10.220;2022-09-09T07:20:54;100916.34;;;24.14;60.80
11395;BME280;5753;54.402;10.220;2022-09-09T07:23:23;100916.34;;;25.22;55.16
11395;BME280;5753;54.402;10.220;2022-09-09T07:25:50;100916.91;;;24.22;58.17
11395;BME280;5753;54.402;10.220;2022-09-09T07:28:20;100921.28;;;24.87;56.12
11395;BME280;5753;54.402;10.220;2022-09-09T07:31:00;100913.72;;;26.55;52.44
11395;BME280;5753;54.402;10.220;2022-09-09T07:33:31;100920.41;;;26.62;50.86
11395;BME280;5753;54.402;10.220;2022-09-09T07:36:08;100924.94;;;27.46;49.10
11395;BME280;5753;54.402;10.220;2022-09-09T07:38:39;100920.91;;;27.22;48.72
11395;BME280;5753;54.402;10.220;2022-09-09T07:41:09;100919.50;;;27.32;49.04
11395;BME280;5753;54.402;10.220;2022-09-09T07:43:42;100920.56;;;26.93;49.34
11395;BME280;5753;54.402;10.220;2022-09-09T07:46:09;100922.09;;;27.16;48.62
11395;BME280;5753;54.402;10.220;2022-09-09T07:48:36;100925.69;;;27.66;47.92
11395;BME280;5753;54.402;10.220;2022-09-09T07:51:07;100931.84;;;26.99;48.17
11395;BME280;5753;54.402;10.220;2022-09-09T07:53:34;100942.59;;;26.41;50.06
11395;BME280;5753;54.402;10.220;2022-09-09T07:56:09;100936.88;;;26.50;49.25
11395;BME280;5753;54.402;10.220;2022-09-09T07:58:37;100936.38;;;26.95;49.14
11395;BME280;5753;54.402;10.220;2022-09-09T08:01:22;100941.66;;;26.95;48.54
11395;BME280;5753;54.402;10.220;2022-09-09T08:03:58;100933.75;;;27.29;47.93
11395;BME280;5753;54.402;10.220;2022-09-09T08:06:25;100934.44;;;26.26;50.31
11395;BME280;5753;54.402;10.220;2022-09-09T08:08:53;100934.38;;;28.16;47.02
11395;BME280;5753;54.402;10.220;2022-09-09T08:11:21;100938.16;;;26.22;49.32
11395;BME280;5753;54.402;10.220;2022-09-09T08:13:50;100933.09;;;26.37;49.93
11395;BME280;5753;54.402;10.220;2022-09-09T08:16:19;100939.47;;;26.86;48.28
11395;BME280;5753;54.402;10.220;2022-09-09T08:18:50;100951.00;;;26.67;48.90
11395;BME280;5753;54.402;10.220;2022-09-09T08:21:25;100948.72;;;25.66;50.64
11395;BME280;5753;54.402;10.220;2022-09-09T08:23:54;100941.84;;;27.44;47.25
11395;BME280;5753;54.402;10.220;2022-09-09T08:26:41;100941.91;;;28.08;46.00
11395;BME280;5753;54.402;10.220;2022-09-09T08:29:08;100943.81;;;27.89;46.71
11395;BME280;5753;54.402;10.220;2022-09-09T08:31:47;100943.72;;;28.39;44.95
11395;BME280;5753;54.402;10.220;2022-09-09T08:34:14;100934.25;;;28.65;44.03
11395;BME280;5753;54.402;10.220;2022-09-09T08:36:45;100942.44;;;26.44;48.60
11395;BME280;5753;54.402;10.220;2022-09-09T08:39:13;100939.31;;;27.91;45.31
11395;BME280;5753;54.402;10.220;2022-09-09T08:52:23;100957.50;;;28.76;44.52
11395;BME280;5753;54.402;10.220;2022-09-09T08:54:51;100956.47;;;28.78;45.44
11395;BME280;5753;54.402;10.220;2022-09-09T08:57:23;100960.84;;;29.39;43.78
11395;BME280;5753;54.402;10.220;2022-09-09T08:59:55;100965.91;;;28.84;44.19
11395;BME280;5753;54.402;10.220;2022-09-09T09:05:07;100962.81;;;28.76;44.25
11395;BME280;5753;54.402;10.220;2022-09-09T09:12:58;100966.28;;;28.62;44.65
11395;BME280;5753;54.402;10.220;2022-09-09T09:15:35;100966.09;;;28.18;45.05
11395;BME280;5753;54.402;10.220;2022-09-09T09:18:04;100971.91;;;28.72;43.96
11395;BME280;5753;54.402;10.220;2022-09-09T09:20:54;100977.13;;;29.19;43.06
11395;BME280;5753;54.402;10.220;2022-09-09T09:23:26;100983.28;;;29.64;43.48
11395;BME280;5753;54.402;10.220;2022-09-09T09:25:59;100985.28;;;29.46;42.45
11395;BME280;5753;54.402;10.220;2022-09-09T09:28:29;100980.81;;;28.87;43.07
11395;BME280;5753;54.402;10.220;2022-09-09T09:31:06;100984.91;;;30.09;42.18
11395;BME280;5753;54.402;10.220;2022-09-09T09:36:09;100985.38;;;29.59;42.56
11395;BME280;5753;54.402;10.220;2022-09-09T09:38:36;100979.75;;;30.76;40.73
11395;BME280;5753;54.402;10.220;2022-09-09T09:41:02;100977.44;;;31.36;40.19
11395;BME280;5753;54.402;10.220;2022-09-09T09:43:33;100991.28;;;30.62;40.63
11395;BME280;5753;54.402;10.220;2022-09-09T09:46:00;100985.47;;;31.09;40.52
11395;BME280;5753;54.402;10.220;2022-09-09T09:48:29;100977.75;;;31.31;40.23
11395;BME280;5753;54.402;10.220;2022-09-09T09:53:33;100969.88;;;30.63;39.78
11395;BME280;5753;54.402;10.220;2022-09-09T09:58:30;100972.94;;;29.73;41.93
11395;BME280;5753;54.402;10.220;2022-09-09T10:00:58;100972.09;;;29.59;41.34
11395;BME280;5753;54.402;10.220;2022-09-09T10:03:26;100973.03;;;30.15;41.17
11395;BME280;5753;54.402;10.220;2022-09-09T10:05:53;100971.13;;;30.31;40.57
11395;BME280;5753;54.402;10.220;2022-09-09T10:08:23;100976.66;;;29.57;42.48
11395;BME280;5753;54.402;10.220;2022-09-09T10:14:00;100981.19;;;31.34;39.34
11395;BME280;5753;54.402;10.220;2022-09-09T10:25:53;100980.59;;;30.76;39.17
11395;BME280;5753;54.402;10.220;2022-09-09T10:34:12;100984.38;;;30.72;38.90
11395;BME280;5753;54.402;10.220;2022-09-09T10:36:25;100983.94;;;30.24;39.55
11395;BME280;5753;54.402;10.220;2022-09-09T10:42:00;100984.56;;;31.61;37.59
11395;BME280;5753;54.402;10.220;2022-09-09T10:52:38;100978.16;;;32.02;37.21
11395;BME280;5753;54.402;10.220;2022-09-09T10:55:23;100988.81;;;32.27;35.91
11395;BME280;5753;54.402;10.220;2022-09-09T10:57:53;100993.72;;;32.20;35.78
11395;BME280;5753;54.402;10.220;2022-09-09T11:00:22;100989.50;;;31.92;36.27
11395;BME280;5753;54.402;10.220;2022-09-09T11:02:58;100982.28;;;32.55;35.76
11395;BME280;5753;54.402;10.220;2022-09-09T11:05:43;100978.91;;;33.58;33.36
11395;BME280;5753;54.402;10.220;2022-09-09T11:08:23;100974.19;;;33.62;33.58
11395;BME280;5753;54.402;10.220;2022-09-09T11:11:08;100971.41;;;33.63;33.73
11395;BME280;5753;54.402;10.220;2022-09-09T11:21:46;100985.19;;;32.76;33.18
11395;BME280;5753;54.402;10.220;2022-09-09T11:24:21;100990.56;;;33.35;31.97
11395;BME280;5753;54.402;10.220;2022-09-09T11:27:13;100988.31;;;33.29;31.61
11395;BME280;5753;54.402;10.220;2022-09-09T11:29:59;100994.06;;;31.00;34.74
11395;BME280;5753;54.402;10.220;2022-09-09T11:38:46;100999.38;;;32.52;33.61
11395;BME280;5753;54.402;10.220;2022-09-09T11:41:14;101012.97;;;34.23;30.83
11395;BME280;5753;54.402;10.220;2022-09-09T11:43:46;101007.09;;;32.81;32.09
11395;BME280;5753;54.402;10.220;2022-09-09T11:46:14;101002.44;;;33.31;32.52
11395;BME280;5753;54.402;10.220;2022-09-09T11:48:58;100997.94;;;34.11;31.09
11395;BME280;5753;54.402;10.220;2022-09-09T11:51:28;100997.06;;;35.29;29.58
11395;BME280;5753;54.402;10.220;2022-09-09T11:53:58;100998.09;;;34.53;28.87
11395;BME280;5753;54.402;10.220;2022-09-09T11:56:32;101002.50;;;34.42;30.13
11395;BME280;5753;54.402;10.220;2022-09-09T11:59:05;101009.06;;;32.90;31.09
11395;BME280;5753;54.402;10.220;2022-09-09T12:01:39;101010.03;;;34.60;29.25
11395;BME280;5753;54.402;10.220;2022-09-09T12:04:16;101008.38;;;33.92;29.85
11395;BME280;5753;54.402;10.220;2022-09-09T12:06:46;101009.72;;;34.08;29.77
11395;BME280;5753;54.402;10.220;2022-09-09T12:09:35;101005.84;;;33.33;31.31
11395;BME280;5753;54.402;10.220;2022-09-09T12:17:18;101009.94;;;32.30;32.43
11395;BME280;5753;54.402;10.220;2022-09-09T12:19:45;101005.19;;;31.84;33.23
11395;BME280;5753;54.402;10.220;2022-09-09T12:22:30;101001.97;;;35.03;28.81
11395;BME280;5753;54.402;10.220;2022-09-09T12:25:06;100999.03;;;33.86;29.82
11395;BME280;5753;54.402;10.220;2022-09-09T12:27:49;101003.13;;;35.73;28.03
11395;BME280;5753;54.402;10.220;2022-09-09T12:30:27;100997.97;;;33.54;29.46
11395;BME280;5753;54.402;10.220;2022-09-09T12:33:08;101006.00;;;33.42;30.59
11395;BME280;5753;54.402;10.220;2022-09-09T12:35:36;101012.38;;;33.97;30.00
11395;BME280;5753;54.402;10.220;2022-09-09T12:38:05;101007.34;;;32.16;33.22
11395;BME280;5753;54.402;10.220;2022-09-09T12:40:35;101002.47;;;31.59;32.61
11395;BME280;5753;54.402;10.220;2022-09-09T12:43:18;100999.06;;;34.63;29.68
11395;BME280;5753;54.402;10.220;2022-09-09T12:45:46;101007.34;;;35.45;27.95
11395;BME280;5753;54.402;10.220;2022-09-09T12:48:14;101000.56;;;36.42;27.13
11395;BME280;5753;54.402;10.220;2022-09-09T12:50:51;101005.97;;;38.50;25.92
11395;BME280;5753;54.402;10.220;2022-09-09T12:53:30;101002.06;;;38.97;24.19
11395;BME280;5753;54.402;10.220;2022-09-09T12:55:59;101002.00;;;37.99;24.24
11395;BME280;5753;54.402;10.220;2022-09-09T12:58:26;100997.53;;;37.90;23.35
11395;BME280;5753;54.402;10.220;2022-09-09T13:00:56;100994.25;;;39.82;22.83
11395;BME280;5753;54.402;10.220;2022-09-09T13:03:23;100996.09;;;40.90;21.11
11395;BME280;5753;54.402;10.220;2022-09-09T13:05:51;100996.59;;;41.98;20.55
11395;BME280;5753;54.402;10.220;2022-09-09T13:08:19;100993.19;;;42.12;20.30
11395;BME280;5753;54.402;10.220;2022-09-09T13:11:00;100977.78;;;40.51;20.80
11395;BME280;5753;54.402;10.220;2022-09-09T13:13:38;100972.53;;;39.91;21.59
11395;BME280;5753;54.402;10.220;2022-09-09T13:16:07;100977.50;;;42.76;19.47
11395;BME280;5753;54.402;10.220;2022-09-09T13:18:43;100973.00;;;43.58;18.42
11395;BME280;5753;54.402;10.220;2022-09-09T13:21:10;100973.59;;;41.38;19.53
11395;BME280;5753;54.402;10.220;2022-09-09T13:23:37;100971.56;;;41.08;21.29
11395;BME280;5753;54.402;10.220;2022-09-09T13:26:21;100975.09;;;44.43;18.27
11395;BME280;5753;54.402;10.220;2022-09-09T13:28:48;100981.06;;;42.54;18.11
11395;BME280;5753;54.402;10.220;2022-09-09T13:31:29;100983.94;;;41.02;19.91
11395;BME280;5753;54.402;10.220;2022-09-09T13:33:57;100973.03;;;39.09;21.87
11395;BME280;5753;54.402;10.220;2022-09-09T13:36:34;100983.06;;;40.11;20.99
11395;BME280;5753;54.402;10.220;2022-09-09T13:39:02;100983.63;;;41.22;20.26
11395;BME280;5753;54.402;10.220;2022-09-09T13:41:43;100984.56;;;41.45;20.99
11395;BME280;5753;54.402;10.220;2022-09-09T13:44:25;100982.72;;;44.91;16.80
11395;BME280;5753;54.402;10.220;2022-09-09T13:47:06;100984.13;;;43.93;17.17
11395;BME280;5753;54.402;10.220;2022-09-09T13:49:43;100981.47;;;44.93;16.90
11395;BME280;5753;54.402;10.220;2022-09-09T13:52:17;100974.16;;;42.74;17.74
11395;BME280;5753;54.402;10.220;2022-09-09T13:54:51;100973.41;;;38.43;21.06
11395;BME280;5753;54.402;10.220;2022-09-09T13:59:47;100970.66;;;40.34;19.77
11395;BME280;5753;54.402;10.220;2022-09-09T14:02:14;100971.81;;;39.81;20.41
11395;BME280;5753;54.402;10.220;2022-09-09T14:04:40;100973.94;;;43.36;17.39
11395;BME280;5753;54.402;10.220;2022-09-09T14:07:13;100981.75;;;45.95;15.70
11395;BME280;5753;54.402;10.220;2022-09-09T14:09:41;100973.56;;;44.49;16.45
11395;BME280;5753;54.402;10.220;2022-09-09T14:12:11;100980.41;;;42.52;18.51
11395;BME280;5753;54.402;10.220;2022-09-09T14:14:38;100976.78;;;40.36;20.61
11395;BME280;5753;54.402;10.220;2022-09-09T14:17:04;100973.13;;;38.46;21.69
11395;BME280;5753;54.402;10.220;2022-09-09T14:19:31;100967.19;;;37.50;22.51
11395;BME280;5753;54.402;10.220;2022-09-09T14:21:57;100967.22;;;37.88;22.89
11395;BME280;5753;54.402;10.220;2022-09-09T14:24:24;100971.81;;;36.13;24.68
11395;BME280;5753;54.402;10.220;2022-09-09T14:26:51;100973.72;;;35.92;24.92
11395;BME280;5753;54.402;10.220;2022-09-09T14:29:17;100965.03;;;36.09;25.29
11395;BME280;5753;54.402;10.220;2022-09-09T14:31:43;100989.03;;;36.01;26.07
11395;BME280;5753;54.402;10.220;2022-09-09T14:34:09;100982.88;;;31.60;34.58
11395;BME280;5753;54.402;10.220;2022-09-09T14:36:37;100986.72;;;28.60;39.97
11395;BME280;5753;54.402;10.220;2022-09-09T14:39:03;100981.47;;;28.74;41.01
11395;BME280;5753;54.402;10.220;2022-09-09T14:41:30;100972.34;;;30.25;40.79
11395;BME280;5753;54.402;10.220;2022-09-09T14:43:56;100971.16;;;31.24;39.96
11395;BME280;5753;54.402;10.220;2022-09-09T14:46:23;100971.25;;;30.83;42.93
11395;BME280;5753;54.402;10.220;2022-09-09T14:48:49;100973.78;;;29.45;43.67
11395;BME280;5753;54.402;10.220;2022-09-09T14:51:20;100969.81;;;29.53;41.77
11395;BME280;5753;54.402;10.220;2022-09-09T14:53:48;100973.78;;;29.60;42.14
11395;BME280;5753;54.402;10.220;2022-09-09T14:56:18;100981.69;;;28.56;41.43
11395;BME280;5753;54.402;10.220;2022-09-09T14:58:45;100976.22;;;29.04;41.58
11395;BME280;5753;54.402;10.220;2022-09-09T15:01:16;100976.75;;;29.25;40.97
11395;BME280;5753;54.402;10.220;2022-09-09T15:03:49;100973.66;;;28.57;42.32
11395;BME280;5753;54.402;10.220;2022-09-09T15:06:16;100973.28;;;28.32;42.93
11395;BME280;5753;54.402;10.220;2022-09-09T15:08:43;100973.56;;;29.04;41.61